Detalii statie TRANSAVIA REDIU [0000197C]

Toti senzorii

Date Temperatura solului [C]Precipitatii [mm]Voltaj baterie [mV]Leaf Wetness [Min]HC Air temperature [C]HC Relative humidity [%]Punctul de roua [C]
medieminmaxsumaultimatimpmedieminmaxmediemediemin
2018-10-13 16:00:00 11.9 11.8 12 0 7108 18.64 18.47 18.99 47.5 7 6.7
2018-10-13 17:00:00 12.1 12.1 12.3 0 7098 17.98 17.17 18.58 48.99 6.9 6.5
2018-10-13 18:00:00 12.2 12.1 12.3 0 6894 13.35 10.24 17.08 64.34 6.4 6.1
2018-10-13 19:00:00 12 11.9 12.2 0 6796 8.87 8.21 9.87 83.07 6 5.8
2018-10-13 20:00:00 11.7 11.5 12 0 6776 7.22 6.5 8.35 92.39 5.9 5.4
2018-10-13 21:00:00 11.3 11.1 11.5 0 6756 6.36 6.12 6.89 99.13 6.1 5.8
2018-10-13 22:00:00 11 10.8 11.2 0 6748 6.06 5.36 6.58 99.52 5.9 5.3
2018-10-13 23:00:00 10.6 10.5 10.8 0 6756 5.34 4.82 5.67 100 5.3 4.8
2018-10-14 00:00:00 10.3 10.2 10.6 0 6756 5.77 5.08 6.59 100 5.7 5
2018-10-14 01:00:00 10.1 9.9 10.3 0 6748 5.12 4.41 6.04 100 5 4.4
2018-10-14 02:00:00 9.8 9.7 10 0 6728 4.08 3.04 5.82 100 4 3
2018-10-14 03:00:00 9.5 9.5 9.8 0 6738 3.36 2.72 3.77 100 3.3 2.7
2018-10-14 04:00:00 9.2 9.1 9.5 0 6728 2.66 2.06 3.1 100 2.6 2
2018-10-14 05:00:00 9 8.9 9.3 0 6708 3.1 2.61 4.57 98.79 2.8 2.6
2018-10-14 06:00:00 8.7 8.5 8.9 0.2 6688 2.09 1.18 2.96 99.82 2 1.1
2018-10-14 07:00:00 8.5 8.3 8.6 0 6688 1.42 0.67 1.85 99.81 1.3 0.6
2018-10-14 08:00:00 8.2 8.2 8.4 0 6738 5.77 1.65 10.55 89.62 3.9 1.6
2018-10-14 09:00:00 8.2 8.1 8.4 0 6786 13.02 11.31 13.53 48.18 1.9 -0.1
2018-10-14 10:00:00 8.7 8.4 9 0 6816 13.57 13.21 13.84 43.74 1.2 0
2018-10-14 11:00:00 9.3 9 9.7 0 6864 14.27 13.58 15.11 40.71 0.9 -0.2
2018-10-14 12:00:00 10 9.7 10.3 0 7108 15.31 14.89 15.59 37.21 0.5 0.1
2018-10-14 13:00:00 10.5 10.4 10.7 0 7108 16.29 15.64 16.95 33.57 0 -0.6
2018-10-14 14:00:00 10.8 10.7 10.9 0 7108 17.12 16.78 17.52 33.99 0.8 0
2018-10-14 15:00:00 11 10.8 11.2 0 7108 17.71 17.45 17.94 34.32 1.4 1.2
2018-10-14 16:00:00 11.3 11.2 11.5 0 7108 18.09 17.96 18.28 33.05 1.3 -0.2
2018-10-14 17:00:00 11.5 11.5 11.7 0 7098 17.65 17.09 18.07 31.07 0.2 -0.2
2018-10-14 18:00:00 11.7 11.6 11.8 0 6914 13.31 8.42 17.14 42.4 0.3 -0.1
2018-10-14 19:00:00 11.5 11.3 11.7 0 6806 7.25 6.12 8.15 61.6 0.2 -0.4
2018-10-14 20:00:00 11.1 10.9 11.3 0 6766 5.74 4.87 6.61 68.57 0.2 0.1
2018-10-14 21:00:00 10.7 10.5 10.9 0 6748 4.79 3.99 5.71 72.19 0.1 -0.1
2018-10-14 22:00:00 10.3 10.2 10.6 0 6766 7.38 5.94 9.91 57.95 -0.4 -0.7
2018-10-14 23:00:00 10.1 10.1 10.2 0 6756 10.91 7.51 12.62 46.01 -0.3 -0.8
2018-10-15 00:00:00 9.9 9.9 10.2 0 6756 7.39 4.73 10.49 57.82 -0.5 -1
2018-10-15 01:00:00 9.7 9.5 9.9 0 6738 3.81 3.07 4.94 70.76 -1 -1.4
2018-10-15 02:00:00 9.4 9.2 9.6 0 6728 2.63 1.61 3.46 77.36 -0.9 -1.3
2018-10-15 03:00:00 9 8.9 9.3 0 6718 2.15 1.45 2.98 81.09 -0.7 -0.9
2018-10-15 04:00:00 8.7 8.5 8.9 0 6708 2.78 1.79 3.73 77.7 -0.7 -0.9
2018-10-15 05:00:00 8.4 8.4 8.6 0.2 6698 2.2 1.73 3.4 82.91 -0.3 -0.9
2018-10-15 06:00:00 8.2 8 8.4 0 6678 0.5 -0.34 1.36 92.85 -0.5 -0.8
2018-10-15 07:00:00 7.9 7.8 8.1 0 6650 1.58 0.68 2.04 94.23 0.6 0
2018-10-15 08:00:00 7.7 7.7 7.9 0 6728 7.65 2.22 9.56 70.97 2.4 1.3
2018-10-15 09:00:00 7.7 7.6 7.9 0 6776 11.38 9.66 12.26 57.23 3 2.6
2018-10-15 10:00:00 8 7.9 8.2 0 6816 12.54 12.31 12.94 53.49 3.1 3
2018-10-15 11:00:00 8.6 8.4 8.9 0 6874 13.28 13 13.63 51.7 3.4 3
2018-10-15 12:00:00 9.3 9 9.6 0 7108 14.89 14.02 15.64 46.1 3.1 2.8
2018-10-15 13:00:00 9.8 9.6 10 0 7108 16.34 15.68 16.74 41.6 3 2.6
2018-10-15 14:00:00 10 9.9 10.2 0 7108 17.07 16.8 17.52 40.7 3.4 3
2018-10-15 15:00:00 10.4 10.2 10.6 0 7108 17.66 17.44 17.83 38.26 3 2.5